sensor_id;sensor_type;location;lat;lon;timestamp;P1;durP1;ratioP1;P2;durP2;ratioP2
59089;SDS011;44878;50.102;18.982;2023-05-10T00:01:55;17.70;;;13.13;;
59089;SDS011;44878;50.102;18.982;2023-05-10T00:04:20;15.17;;;12.83;;
59089;SDS011;44878;50.102;18.982;2023-05-10T00:06:47;16.50;;;13.20;;
59089;SDS011;44878;50.102;18.982;2023-05-10T00:09:13;15.57;;;12.33;;
59089;SDS011;44878;50.102;18.982;2023-05-10T00:11:39;17.27;;;12.90;;
59089;SDS011;44878;50.102;18.982;2023-05-10T00:14:05;15.50;;;13.20;;
59089;SDS011;44878;50.102;18.982;2023-05-10T00:16:31;17.23;;;12.30;;
59089;SDS011;44878;50.102;18.982;2023-05-10T00:18:56;17.97;;;13.37;;
59089;SDS011;44878;50.102;18.982;2023-05-10T00:21:22;15.43;;;11.97;;
59089;SDS011;44878;50.102;18.982;2023-05-10T00:23:48;15.03;;;12.20;;
59089;SDS011;44878;50.102;18.982;2023-05-10T00:26:14;18.20;;;12.50;;
59089;SDS011;44878;50.102;18.982;2023-05-10T00:28:40;15.73;;;11.93;;
59089;SDS011;44878;50.102;18.982;2023-05-10T00:31:06;14.27;;;11.80;;
59089;SDS011;44878;50.102;18.982;2023-05-10T00:33:32;14.60;;;12.20;;
59089;SDS011;44878;50.102;18.982;2023-05-10T00:35:58;18.33;;;12.23;;
59089;SDS011;44878;50.102;18.982;2023-05-10T00:38:26;15.10;;;11.77;;
59089;SDS011;44878;50.102;18.982;2023-05-10T00:40:52;15.37;;;11.70;;
59089;SDS011;44878;50.102;18.982;2023-05-10T00:43:18;15.30;;;12.17;;
59089;SDS011;44878;50.102;18.982;2023-05-10T00:45:44;17.27;;;12.70;;
59089;SDS011;44878;50.102;18.982;2023-05-10T00:48:10;14.03;;;11.87;;
59089;SDS011;44878;50.102;18.982;2023-05-10T00:50:35;12.77;;;11.47;;
59089;SDS011;44878;50.102;18.982;2023-05-10T00:53:01;17.57;;;11.90;;
59089;SDS011;44878;50.102;18.982;2023-05-10T00:55:28;15.83;;;12.23;;
59089;SDS011;44878;50.102;18.982;2023-05-10T00:57:54;14.57;;;11.33;;
59089;SDS011;44878;50.102;18.982;2023-05-10T01:00:20;16.73;;;12.93;;
59089;SDS011;44878;50.102;18.982;2023-05-10T01:02:46;14.53;;;12.43;;
59089;SDS011;44878;50.102;18.982;2023-05-10T01:05:12;13.53;;;12.13;;
59089;SDS011;44878;50.102;18.982;2023-05-10T01:07:38;13.70;;;12.07;;
59089;SDS011;44878;50.102;18.982;2023-05-10T01:10:05;16.63;;;12.50;;
59089;SDS011;44878;50.102;18.982;2023-05-10T01:12:32;18.37;;;13.40;;
59089;SDS011;44878;50.102;18.982;2023-05-10T01:14:58;15.77;;;12.50;;
59089;SDS011;44878;50.102;18.982;2023-05-10T01:17:25;17.05;;;13.02;;
59089;SDS011;44878;50.102;18.982;2023-05-10T01:19:51;15.03;;;12.77;;
59089;SDS011;44878;50.102;18.982;2023-05-10T01:35:05;16.40;;;12.40;;
59089;SDS011;44878;50.102;18.982;2023-05-10T01:37:35;14.63;;;12.90;;
59089;SDS011;44878;50.102;18.982;2023-05-10T01:40:07;17.30;;;13.20;;
59089;SDS011;44878;50.102;18.982;2023-05-10T01:42:39;15.80;;;13.33;;
59089;SDS011;44878;50.102;18.982;2023-05-10T01:47:37;17.13;;;13.03;;
59089;SDS011;44878;50.102;18.982;2023-05-10T01:50:04;17.03;;;13.97;;
59089;SDS011;44878;50.102;18.982;2023-05-10T01:55:14;16.57;;;12.53;;
59089;SDS011;44878;50.102;18.982;2023-05-10T01:57:42;15.93;;;13.07;;
59089;SDS011;44878;50.102;18.982;2023-05-10T02:00:09;17.27;;;13.83;;
59089;SDS011;44878;50.102;18.982;2023-05-10T02:02:37;16.60;;;13.53;;
59089;SDS011;44878;50.102;18.982;2023-05-10T02:05:05;14.53;;;12.70;;
59089;SDS011;44878;50.102;18.982;2023-05-10T02:07:31;14.73;;;13.10;;
59089;SDS011;44878;50.102;18.982;2023-05-10T02:09:58;16.90;;;13.87;;
59089;SDS011;44878;50.102;18.982;2023-05-10T02:12:24;17.60;;;14.13;;
59089;SDS011;44878;50.102;18.982;2023-05-10T02:14:51;14.88;;;13.30;;
59089;SDS011;44878;50.102;18.982;2023-05-10T02:17:18;18.67;;;13.70;;
59089;SDS011;44878;50.102;18.982;2023-05-10T02:19:44;17.23;;;14.10;;
59089;SDS011;44878;50.102;18.982;2023-05-10T02:22:10;17.93;;;13.23;;
59089;SDS011;44878;50.102;18.982;2023-05-10T02:24:37;16.13;;;14.43;;
59089;SDS011;44878;50.102;18.982;2023-05-10T02:27:03;15.70;;;14.10;;
59089;SDS011;44878;50.102;18.982;2023-05-10T02:29:31;16.67;;;13.50;;
59089;SDS011;44878;50.102;18.982;2023-05-10T02:31:57;15.27;;;13.67;;
59089;SDS011;44878;50.102;18.982;2023-05-10T02:34:25;19.07;;;14.20;;
59089;SDS011;44878;50.102;18.982;2023-05-10T02:36:51;16.90;;;15.10;;
59089;SDS011;44878;50.102;18.982;2023-05-10T02:39:18;16.90;;;15.13;;
59089;SDS011;44878;50.102;18.982;2023-05-10T02:41:44;17.10;;;14.70;;
59089;SDS011;44878;50.102;18.982;2023-05-10T02:44:12;17.00;;;15.13;;
59089;SDS011;44878;50.102;18.982;2023-05-10T02:46:42;18.35;;;15.63;;
59089;SDS011;44878;50.102;18.982;2023-05-10T02:49:09;17.07;;;15.20;;
59089;SDS011;44878;50.102;18.982;2023-05-10T02:51:35;17.50;;;15.60;;
59089;SDS011;44878;50.102;18.982;2023-05-10T02:54:13;20.03;;;15.80;;
59089;SDS011;44878;50.102;18.982;2023-05-10T02:56:43;19.03;;;14.67;;
59089;SDS011;44878;50.102;18.982;2023-05-10T02:59:12;21.07;;;15.13;;
59089;SDS011;44878;50.102;18.982;2023-05-10T03:01:38;18.63;;;16.60;;
59089;SDS011;44878;50.102;18.982;2023-05-10T03:04:04;18.47;;;15.37;;
59089;SDS011;44878;50.102;18.982;2023-05-10T03:06:30;18.60;;;16.23;;
59089;SDS011;44878;50.102;18.982;2023-05-10T03:08:57;21.95;;;16.63;;
59089;SDS011;44878;50.102;18.982;2023-05-10T03:13:54;19.20;;;17.13;;
59089;SDS011;44878;50.102;18.982;2023-05-10T03:16:24;19.63;;;16.97;;
59089;SDS011;44878;50.102;18.982;2023-05-10T03:19:06;19.00;;;16.67;;
59089;SDS011;44878;50.102;18.982;2023-05-10T03:21:32;20.60;;;17.47;;
59089;SDS011;44878;50.102;18.982;2023-05-10T03:24:03;20.27;;;16.58;;
59089;SDS011;44878;50.102;18.982;2023-05-10T03:26:31;17.53;;;15.70;;
59089;SDS011;44878;50.102;18.982;2023-05-10T03:28:57;21.40;;;16.23;;
59089;SDS011;44878;50.102;18.982;2023-05-10T03:31:24;21.67;;;15.15;;
59089;SDS011;44878;50.102;18.982;2023-05-10T03:33:51;18.13;;;15.07;;
59089;SDS011;44878;50.102;18.982;2023-05-10T03:36:21;17.53;;;15.00;;
59089;SDS011;44878;50.102;18.982;2023-05-10T03:38:47;20.47;;;15.23;;
59089;SDS011;44878;50.102;18.982;2023-05-10T03:41:12;17.93;;;15.40;;
59089;SDS011;44878;50.102;18.982;2023-05-10T03:43:39;17.70;;;15.80;;
59089;SDS011;44878;50.102;18.982;2023-05-10T03:46:05;17.87;;;16.07;;
59089;SDS011;44878;50.102;18.982;2023-05-10T03:48:34;20.00;;;17.20;;
59089;SDS011;44878;50.102;18.982;2023-05-10T03:51:00;19.13;;;17.13;;
59089;SDS011;44878;50.102;18.982;2023-05-10T03:53:26;20.70;;;17.87;;
59089;SDS011;44878;50.102;18.982;2023-05-10T03:55:52;21.37;;;19.10;;
59089;SDS011;44878;50.102;18.982;2023-05-10T03:58:18;24.40;;;20.90;;
59089;SDS011;44878;50.102;18.982;2023-05-10T04:00:44;21.30;;;19.10;;
59089;SDS011;44878;50.102;18.982;2023-05-10T04:03:11;20.27;;;17.48;;
59089;SDS011;44878;50.102;18.982;2023-05-10T04:05:37;16.80;;;15.00;;
59089;SDS011;44878;50.102;18.982;2023-05-10T04:08:03;17.97;;;15.90;;
59089;SDS011;44878;50.102;18.982;2023-05-10T04:10:29;21.73;;;15.63;;
59089;SDS011;44878;50.102;18.982;2023-05-10T04:12:55;15.90;;;14.30;;
59089;SDS011;44878;50.102;18.982;2023-05-10T04:15:21;16.93;;;14.77;;
59089;SDS011;44878;50.102;18.982;2023-05-10T04:17:47;19.33;;;15.37;;
59089;SDS011;44878;50.102;18.982;2023-05-10T04:20:13;17.87;;;14.60;;
59089;SDS011;44878;50.102;18.982;2023-05-10T04:22:39;16.77;;;14.23;;
59089;SDS011;44878;50.102;18.982;2023-05-10T04:25:06;15.67;;;14.07;;
59089;SDS011;44878;50.102;18.982;2023-05-10T04:27:32;17.37;;;14.03;;
59089;SDS011;44878;50.102;18.982;2023-05-10T04:29:58;16.10;;;13.82;;
59089;SDS011;44878;50.102;18.982;2023-05-10T04:32:24;19.45;;;14.07;;
59089;SDS011;44878;50.102;18.982;2023-05-10T04:34:50;17.00;;;13.23;;
59089;SDS011;44878;50.102;18.982;2023-05-10T04:37:17;16.02;;;12.30;;
59089;SDS011;44878;50.102;18.982;2023-05-10T04:39:43;16.25;;;12.93;;
59089;SDS011;44878;50.102;18.982;2023-05-10T04:42:09;14.57;;;12.68;;
59089;SDS011;44878;50.102;18.982;2023-05-10T04:44:35;13.45;;;12.05;;
59089;SDS011;44878;50.102;18.982;2023-05-10T04:47:01;17.00;;;13.25;;
59089;SDS011;44878;50.102;18.982;2023-05-10T04:49:31;16.73;;;12.75;;
59089;SDS011;44878;50.102;18.982;2023-05-10T04:51:57;16.58;;;12.73;;
59089;SDS011;44878;50.102;18.982;2023-05-10T04:54:23;15.57;;;12.70;;
59089;SDS011;44878;50.102;18.982;2023-05-10T04:56:49;17.95;;;13.65;;
59089;SDS011;44878;50.102;18.982;2023-05-10T04:59:15;17.98;;;13.13;;
59089;SDS011;44878;50.102;18.982;2023-05-10T05:01:41;17.38;;;13.40;;
59089;SDS011;44878;50.102;18.982;2023-05-10T05:04:07;15.95;;;13.77;;
59089;SDS011;44878;50.102;18.982;2023-05-10T05:06:33;19.33;;;14.98;;
59089;SDS011;44878;50.102;18.982;2023-05-10T05:08:58;17.35;;;12.77;;
59089;SDS011;44878;50.102;18.982;2023-05-10T05:11:25;19.83;;;14.23;;
59089;SDS011;44878;50.102;18.982;2023-05-10T05:13:51;16.60;;;12.68;;
59089;SDS011;44878;50.102;18.982;2023-05-10T05:16:17;20.17;;;12.32;;
59089;SDS011;44878;50.102;18.982;2023-05-10T05:18:43;16.27;;;12.90;;
59089;SDS011;44878;50.102;18.982;2023-05-10T05:21:15;20.98;;;16.50;;
59089;SDS011;44878;50.102;18.982;2023-05-10T05:23:41;13.90;;;12.23;;
59089;SDS011;44878;50.102;18.982;2023-05-10T05:26:07;16.25;;;12.57;;
59089;SDS011;44878;50.102;18.982;2023-05-10T05:28:33;12.52;;;10.68;;
59089;SDS011;44878;50.102;18.982;2023-05-10T05:31:06;13.77;;;11.50;;
59089;SDS011;44878;50.102;18.982;2023-05-10T05:33:33;17.83;;;12.55;;
59089;SDS011;44878;50.102;18.982;2023-05-10T05:36:03;14.50;;;11.70;;
59089;SDS011;44878;50.102;18.982;2023-05-10T05:38:28;13.95;;;10.52;;
59089;SDS011;44878;50.102;18.982;2023-05-10T05:40:54;19.70;;;11.07;;
59089;SDS011;44878;50.102;18.982;2023-05-10T05:43:20;13.00;;;9.95;;
59089;SDS011;44878;50.102;18.982;2023-05-10T05:45:46;15.18;;;10.05;;
59089;SDS011;44878;50.102;18.982;2023-05-10T05:48:12;14.82;;;10.25;;
59089;SDS011;44878;50.102;18.982;2023-05-10T05:50:38;10.90;;;9.43;;
59089;SDS011;44878;50.102;18.982;2023-05-10T05:53:04;13.07;;;9.23;;
59089;SDS011;44878;50.102;18.982;2023-05-10T05:55:29;13.57;;;10.57;;
59089;SDS011;44878;50.102;18.982;2023-05-10T05:57:57;11.18;;;9.00;;
59089;SDS011;44878;50.102;18.982;2023-05-10T06:00:23;12.38;;;9.43;;
59089;SDS011;44878;50.102;18.982;2023-05-10T06:02:49;13.57;;;9.43;;
59089;SDS011;44878;50.102;18.982;2023-05-10T06:05:15;11.70;;;8.82;;
59089;SDS011;44878;50.102;18.982;2023-05-10T06:07:41;12.05;;;9.15;;
59089;SDS011;44878;50.102;18.982;2023-05-10T06:10:07;13.60;;;9.82;;
59089;SDS011;44878;50.102;18.982;2023-05-10T06:12:34;14.53;;;10.40;;
59089;SDS011;44878;50.102;18.982;2023-05-10T06:14:59;10.98;;;8.80;;
59089;SDS011;44878;50.102;18.982;2023-05-10T06:17:25;15.23;;;8.45;;
59089;SDS011;44878;50.102;18.982;2023-05-10T06:19:51;10.52;;;8.38;;
59089;SDS011;44878;50.102;18.982;2023-05-10T06:22:18;14.82;;;8.90;;
59089;SDS011;44878;50.102;18.982;2023-05-10T06:24:43;11.65;;;7.88;;
59089;SDS011;44878;50.102;18.982;2023-05-10T06:27:13;10.85;;;8.25;;
59089;SDS011;44878;50.102;18.982;2023-05-10T06:29:38;10.15;;;7.50;;
59089;SDS011;44878;50.102;18.982;2023-05-10T06:32:04;11.90;;;7.90;;
59089;SDS011;44878;50.102;18.982;2023-05-10T06:34:33;11.23;;;7.88;;
59089;SDS011;44878;50.102;18.982;2023-05-10T06:36:59;10.55;;;7.88;;
59089;SDS011;44878;50.102;18.982;2023-05-10T06:39:25;13.30;;;9.05;;
59089;SDS011;44878;50.102;18.982;2023-05-10T06:41:51;11.73;;;8.15;;
59089;SDS011;44878;50.102;18.982;2023-05-10T06:44:16;18.02;;;13.70;;
59089;SDS011;44878;50.102;18.982;2023-05-10T06:46:42;13.07;;;8.65;;
59089;SDS011;44878;50.102;18.982;2023-05-10T06:49:08;12.13;;;7.97;;
59089;SDS011;44878;50.102;18.982;2023-05-10T06:51:34;12.95;;;8.88;;
59089;SDS011;44878;50.102;18.982;2023-05-10T06:54:00;12.57;;;8.13;;
59089;SDS011;44878;50.102;18.982;2023-05-10T06:56:26;11.20;;;7.85;;
59089;SDS011;44878;50.102;18.982;2023-05-10T06:58:52;18.85;;;15.98;;
59089;SDS011;44878;50.102;18.982;2023-05-10T07:01:18;12.95;;;8.10;;
59089;SDS011;44878;50.102;18.982;2023-05-10T07:03:44;14.00;;;8.15;;
59089;SDS011;44878;50.102;18.982;2023-05-10T07:06:10;17.80;;;8.20;;
59089;SDS011;44878;50.102;18.982;2023-05-10T07:08:36;15.27;;;7.72;;
59089;SDS011;44878;50.102;18.982;2023-05-10T07:11:02;12.02;;;6.93;;
59089;SDS011;44878;50.102;18.982;2023-05-10T07:13:31;11.57;;;7.25;;
59089;SDS011;44878;50.102;18.982;2023-05-10T07:15:58;10.38;;;7.55;;
59089;SDS011;44878;50.102;18.982;2023-05-10T07:18:24;12.15;;;7.00;;
59089;SDS011;44878;50.102;18.982;2023-05-10T07:20:53;12.75;;;6.93;;
59089;SDS011;44878;50.102;18.982;2023-05-10T07:23:18;13.13;;;7.82;;
59089;SDS011;44878;50.102;18.982;2023-05-10T07:25:48;9.93;;;7.30;;
59089;SDS011;44878;50.102;18.982;2023-05-10T07:28:15;12.50;;;8.70;;
59089;SDS011;44878;50.102;18.982;2023-05-10T07:30:41;9.00;;;6.37;;
59089;SDS011;44878;50.102;18.982;2023-05-10T07:33:07;8.13;;;6.13;;
59089;SDS011;44878;50.102;18.982;2023-05-10T07:35:34;10.00;;;6.82;;
59089;SDS011;44878;50.102;18.982;2023-05-10T07:38:00;13.18;;;6.25;;
59089;SDS011;44878;50.102;18.982;2023-05-10T07:40:26;9.57;;;5.78;;
59089;SDS011;44878;50.102;18.982;2023-05-10T07:42:52;10.85;;;6.38;;
59089;SDS011;44878;50.102;18.982;2023-05-10T07:45:18;9.65;;;5.93;;
59089;SDS011;44878;50.102;18.982;2023-05-10T07:47:44;7.78;;;4.90;;
59089;SDS011;44878;50.102;18.982;2023-05-10T07:50:13;7.68;;;5.40;;
59089;SDS011;44878;50.102;18.982;2023-05-10T07:52:39;7.60;;;4.38;;
59089;SDS011;44878;50.102;18.982;2023-05-10T07:55:05;7.75;;;5.03;;
59089;SDS011;44878;50.102;18.982;2023-05-10T07:57:35;6.70;;;4.57;;
59089;SDS011;44878;50.102;18.982;2023-05-10T08:00:02;8.30;;;5.45;;
59089;SDS011;44878;50.102;18.982;2023-05-10T08:02:31;9.88;;;4.65;;
59089;SDS011;44878;50.102;18.982;2023-05-10T08:04:57;6.95;;;4.78;;
59089;SDS011;44878;50.102;18.982;2023-05-10T08:07:24;8.07;;;4.88;;
59089;SDS011;44878;50.102;18.982;2023-05-10T08:09:50;7.55;;;4.18;;
59089;SDS011;44878;50.102;18.982;2023-05-10T08:12:16;7.80;;;4.72;;
59089;SDS011;44878;50.102;18.982;2023-05-10T08:14:42;7.88;;;4.35;;
59089;SDS011;44878;50.102;18.982;2023-05-10T08:17:10;9.07;;;4.38;;
59089;SDS011;44878;50.102;18.982;2023-05-10T08:19:36;8.50;;;3.88;;
59089;SDS011;44878;50.102;18.982;2023-05-10T08:22:02;7.15;;;4.03;;
59089;SDS011;44878;50.102;18.982;2023-05-10T08:24:28;9.02;;;4.65;;
59089;SDS011;44878;50.102;18.982;2023-05-10T08:26:57;9.48;;;4.60;;
59089;SDS011;44878;50.102;18.982;2023-05-10T08:29:24;8.70;;;4.90;;
59089;SDS011;44878;50.102;18.982;2023-05-10T08:31:50;8.35;;;4.53;;
59089;SDS011;44878;50.102;18.982;2023-05-10T08:34:16;6.15;;;4.30;;
59089;SDS011;44878;50.102;18.982;2023-05-10T08:36:42;6.28;;;3.80;;
59089;SDS011;44878;50.102;18.982;2023-05-10T08:39:08;6.00;;;3.40;;
59089;SDS011;44878;50.102;18.982;2023-05-10T08:41:34;9.88;;;4.22;;
59089;SDS011;44878;50.102;18.982;2023-05-10T08:44:11;5.50;;;3.72;;
59089;SDS011;44878;50.102;18.982;2023-05-10T08:46:41;5.53;;;3.90;;
59089;SDS011;44878;50.102;18.982;2023-05-10T08:49:09;6.22;;;3.50;;
59089;SDS011;44878;50.102;18.982;2023-05-10T08:51:40;5.57;;;3.20;;
59089;SDS011;44878;50.102;18.982;2023-05-10T08:54:18;4.97;;;3.13;;
59089;SDS011;44878;50.102;18.982;2023-05-10T08:56:44;5.35;;;2.75;;
59089;SDS011;44878;50.102;18.982;2023-05-10T08:59:10;6.03;;;3.30;;
59089;SDS011;44878;50.102;18.982;2023-05-10T09:04:04;4.97;;;2.97;;
59089;SDS011;44878;50.102;18.982;2023-05-10T09:06:30;7.07;;;2.67;;
59089;SDS011;44878;50.102;18.982;2023-05-10T09:08:57;4.25;;;3.10;;
59089;SDS011;44878;50.102;18.982;2023-05-10T09:11:25;4.82;;;2.95;;
59089;SDS011;44878;50.102;18.982;2023-05-10T09:16:17;4.80;;;2.95;;
59089;SDS011;44878;50.102;18.982;2023-05-10T09:18:43;5.57;;;3.30;;
59089;SDS011;44878;50.102;18.982;2023-05-10T09:21:09;5.10;;;2.58;;
59089;SDS011;44878;50.102;18.982;2023-05-10T09:23:35;5.03;;;3.13;;
59089;SDS011;44878;50.102;18.982;2023-05-10T09:26:01;4.88;;;2.65;;
59089;SDS011;44878;50.102;18.982;2023-05-10T09:28:31;6.47;;;3.05;;
59089;SDS011;44878;50.102;18.982;2023-05-10T09:30:57;4.00;;;2.78;;
59089;SDS011;44878;50.102;18.982;2023-05-10T09:33:23;7.50;;;2.90;;
59089;SDS011;44878;50.102;18.982;2023-05-10T09:35:48;4.30;;;3.05;;
59089;SDS011;44878;50.102;18.982;2023-05-10T09:38:17;5.03;;;3.15;;
59089;SDS011;44878;50.102;18.982;2023-05-10T09:40:42;5.55;;;2.53;;
59089;SDS011;44878;50.102;18.982;2023-05-10T09:43:19;6.25;;;3.08;;
59089;SDS011;44878;50.102;18.982;2023-05-10T09:45:45;6.07;;;3.28;;
59089;SDS011;44878;50.102;18.982;2023-05-10T09:48:13;4.65;;;2.85;;
59089;SDS011;44878;50.102;18.982;2023-05-10T09:50:39;7.10;;;2.97;;
59089;SDS011;44878;50.102;18.982;2023-05-10T09:53:06;4.78;;;3.25;;
59089;SDS011;44878;50.102;18.982;2023-05-10T09:55:41;6.70;;;3.10;;
59089;SDS011;44878;50.102;18.982;2023-05-10T09:58:10;4.93;;;2.70;;
59089;SDS011;44878;50.102;18.982;2023-05-10T10:00:39;5.60;;;2.92;;
59089;SDS011;44878;50.102;18.982;2023-05-10T10:03:06;7.35;;;2.95;;
59089;SDS011;44878;50.102;18.982;2023-05-10T10:05:36;4.85;;;2.88;;
59089;SDS011;44878;50.102;18.982;2023-05-10T10:08:05;5.18;;;3.05;;
59089;SDS011;44878;50.102;18.982;2023-05-10T10:10:32;3.78;;;2.78;;
59089;SDS011;44878;50.102;18.982;2023-05-10T10:12:58;5.95;;;2.90;;
59089;SDS011;44878;50.102;18.982;2023-05-10T10:15:25;5.30;;;3.20;;
59089;SDS011;44878;50.102;18.982;2023-05-10T10:17:51;7.43;;;2.95;;
59089;SDS011;44878;50.102;18.982;2023-05-10T10:20:18;4.75;;;2.92;;
59089;SDS011;44878;50.102;18.982;2023-05-10T10:22:45;5.72;;;3.20;;
59089;SDS011;44878;50.102;18.982;2023-05-10T10:25:17;5.32;;;3.05;;
59089;SDS011;44878;50.102;18.982;2023-05-10T10:30:37;5.57;;;2.95;;
59089;SDS011;44878;50.102;18.982;2023-05-10T10:35:49;8.90;;;3.72;;
59089;SDS011;44878;50.102;18.982;2023-05-10T10:38:16;4.43;;;2.90;;
59089;SDS011;44878;50.102;18.982;2023-05-10T10:40:42;4.30;;;3.30;;
59089;SDS011;44878;50.102;18.982;2023-05-10T10:43:21;8.35;;;3.65;;
59089;SDS011;44878;50.102;18.982;2023-05-10T10:46:33;8.20;;;3.55;;
59089;SDS011;44878;50.102;18.982;2023-05-10T10:48:34;4.85;;;3.50;;
59089;SDS011;44878;50.102;18.982;2023-05-10T10:51:01;5.47;;;3.73;;
59089;SDS011;44878;50.102;18.982;2023-05-10T10:53:27;3.90;;;2.92;;
59089;SDS011;44878;50.102;18.982;2023-05-10T10:56:07;4.55;;;3.03;;
59089;SDS011;44878;50.102;18.982;2023-05-10T10:58:35;4.72;;;3.42;;
59089;SDS011;44878;50.102;18.982;2023-05-10T11:03:36;4.03;;;2.95;;
59089;SDS011;44878;50.102;18.982;2023-05-10T11:06:01;8.32;;;3.38;;
59089;SDS011;44878;50.102;18.982;2023-05-10T11:08:29;4.07;;;2.90;;
59089;SDS011;44878;50.102;18.982;2023-05-10T11:13:43;4.80;;;3.20;;
59089;SDS011;44878;50.102;18.982;2023-05-10T11:16:10;8.23;;;2.92;;
59089;SDS011;44878;50.102;18.982;2023-05-10T11:18:37;5.55;;;2.97;;
59089;SDS011;44878;50.102;18.982;2023-05-10T11:21:03;6.70;;;3.05;;
59089;SDS011;44878;50.102;18.982;2023-05-10T11:23:47;4.32;;;3.00;;
59089;SDS011;44878;50.102;18.982;2023-05-10T11:26:13;4.20;;;3.30;;
59089;SDS011;44878;50.102;18.982;2023-05-10T11:28:46;5.93;;;2.83;;
59089;SDS011;44878;50.102;18.982;2023-05-10T11:31:19;6.13;;;2.97;;
59089;SDS011;44878;50.102;18.982;2023-05-10T11:33:45;4.80;;;3.13;;
59089;SDS011;44878;50.102;18.982;2023-05-10T11:36:12;5.57;;;3.27;;
59089;SDS011;44878;50.102;18.982;2023-05-10T11:38:38;5.53;;;3.33;;
59089;SDS011;44878;50.102;18.982;2023-05-10T11:41:04;4.78;;;3.33;;
59089;SDS011;44878;50.102;18.982;2023-05-10T11:43:33;4.65;;;2.90;;
59089;SDS011;44878;50.102;18.982;2023-05-10T11:45:59;4.57;;;2.85;;
59089;SDS011;44878;50.102;18.982;2023-05-10T11:48:26;6.07;;;3.13;;
59089;SDS011;44878;50.102;18.982;2023-05-10T11:50:51;5.00;;;3.10;;
59089;SDS011;44878;50.102;18.982;2023-05-10T11:53:21;3.65;;;2.88;;
59089;SDS011;44878;50.102;18.982;2023-05-10T11:55:47;5.40;;;2.72;;
59089;SDS011;44878;50.102;18.982;2023-05-10T12:01:06;4.35;;;2.90;;
59089;SDS011;44878;50.102;18.982;2023-05-10T12:03:32;5.72;;;3.10;;
59089;SDS011;44878;50.102;18.982;2023-05-10T12:05:58;6.18;;;2.90;;
59089;SDS011;44878;50.102;18.982;2023-05-10T12:08:25;6.65;;;2.88;;
59089;SDS011;44878;50.102;18.982;2023-05-10T12:10:52;5.30;;;2.80;;
59089;SDS011;44878;50.102;18.982;2023-05-10T12:13:19;5.65;;;2.83;;
59089;SDS011;44878;50.102;18.982;2023-05-10T12:15:45;4.45;;;2.90;;
59089;SDS011;44878;50.102;18.982;2023-05-10T12:18:12;6.80;;;2.60;;
59089;SDS011;44878;50.102;18.982;2023-05-10T12:20:39;4.15;;;2.95;;
59089;SDS011;44878;50.102;18.982;2023-05-10T12:23:07;5.07;;;2.67;;
59089;SDS011;44878;50.102;18.982;2023-05-10T12:25:34;3.88;;;2.80;;
59089;SDS011;44878;50.102;18.982;2023-05-10T12:28:04;5.35;;;3.20;;
59089;SDS011;44878;50.102;18.982;2023-05-10T12:30:31;3.65;;;2.55;;
59089;SDS011;44878;50.102;18.982;2023-05-10T12:33:15;4.25;;;2.55;;
59089;SDS011;44878;50.102;18.982;2023-05-10T12:35:47;4.30;;;2.80;;
59089;SDS011;44878;50.102;18.982;2023-05-10T12:40:52;5.70;;;3.05;;
59089;SDS011;44878;50.102;18.982;2023-05-10T12:43:18;9.05;;;2.50;;
59089;SDS011;44878;50.102;18.982;2023-05-10T12:45:44;3.78;;;2.70;;
59089;SDS011;44878;50.102;18.982;2023-05-10T12:48:13;4.85;;;2.78;;
59089;SDS011;44878;50.102;18.982;2023-05-10T12:50:39;5.90;;;2.70;;
59089;SDS011;44878;50.102;18.982;2023-05-10T12:53:05;5.07;;;2.63;;
59089;SDS011;44878;50.102;18.982;2023-05-10T12:55:32;5.35;;;2.72;;
59089;SDS011;44878;50.102;18.982;2023-05-10T12:57:58;5.22;;;2.97;;
59089;SDS011;44878;50.102;18.982;2023-05-10T13:00:24;3.00;;;2.42;;
59089;SDS011;44878;50.102;18.982;2023-05-10T13:02:50;3.25;;;2.70;;
59089;SDS011;44878;50.102;18.982;2023-05-10T13:05:16;5.18;;;2.85;;
59089;SDS011;44878;50.102;18.982;2023-05-10T13:07:42;4.07;;;2.90;;
59089;SDS011;44878;50.102;18.982;2023-05-10T13:10:09;3.85;;;2.60;;
59089;SDS011;44878;50.102;18.982;2023-05-10T13:12:35;4.53;;;2.70;;
59089;SDS011;44878;50.102;18.982;2023-05-10T13:15:01;4.47;;;2.95;;
59089;SDS011;44878;50.102;18.982;2023-05-10T13:17:28;4.55;;;2.95;;
59089;SDS011;44878;50.102;18.982;2023-05-10T13:19:54;3.97;;;2.38;;
59089;SDS011;44878;50.102;18.982;2023-05-10T13:22:20;3.03;;;2.40;;
59089;SDS011;44878;50.102;18.982;2023-05-10T13:24:46;4.03;;;2.67;;
59089;SDS011;44878;50.102;18.982;2023-05-10T13:27:12;5.00;;;3.08;;
59089;SDS011;44878;50.102;18.982;2023-05-10T13:29:41;3.17;;;2.70;;
59089;SDS011;44878;50.102;18.982;2023-05-10T13:32:08;5.53;;;2.95;;
59089;SDS011;44878;50.102;18.982;2023-05-10T13:34:34;5.50;;;2.83;;
59089;SDS011;44878;50.102;18.982;2023-05-10T13:37:01;5.45;;;3.20;;
59089;SDS011;44878;50.102;18.982;2023-05-10T13:39:27;6.82;;;2.60;;
59089;SDS011;44878;50.102;18.982;2023-05-10T13:41:55;4.18;;;2.63;;
59089;SDS011;44878;50.102;18.982;2023-05-10T13:44:21;3.78;;;2.67;;
59089;SDS011;44878;50.102;18.982;2023-05-10T13:46:47;4.60;;;2.60;;
59089;SDS011;44878;50.102;18.982;2023-05-10T13:49:13;3.38;;;2.47;;
59089;SDS011;44878;50.102;18.982;2023-05-10T13:51:39;5.25;;;2.80;;
59089;SDS011;44878;50.102;18.982;2023-05-10T13:54:04;5.88;;;2.80;;
59089;SDS011;44878;50.102;18.982;2023-05-10T13:56:30;4.88;;;2.70;;
59089;SDS011;44878;50.102;18.982;2023-05-10T13:58:56;4.07;;;2.60;;
59089;SDS011;44878;50.102;18.982;2023-05-10T14:01:23;4.55;;;3.20;;
59089;SDS011;44878;50.102;18.982;2023-05-10T14:03:48;6.28;;;2.63;;
59089;SDS011;44878;50.102;18.982;2023-05-10T14:06:14;6.05;;;2.97;;
59089;SDS011;44878;50.102;18.982;2023-05-10T14:08:44;4.57;;;3.00;;
59089;SDS011;44878;50.102;18.982;2023-05-10T14:11:10;4.32;;;2.90;;
59089;SDS011;44878;50.102;18.982;2023-05-10T14:13:38;4.38;;;3.05;;
59089;SDS011;44878;50.102;18.982;2023-05-10T14:16:07;4.65;;;3.00;;
59089;SDS011;44878;50.102;18.982;2023-05-10T14:18:45;6.55;;;2.70;;
59089;SDS011;44878;50.102;18.982;2023-05-10T14:21:12;5.68;;;3.20;;
59089;SDS011;44878;50.102;18.982;2023-05-10T14:23:37;4.68;;;2.80;;
59089;SDS011;44878;50.102;18.982;2023-05-10T14:26:07;5.90;;;2.75;;
59089;SDS011;44878;50.102;18.982;2023-05-10T14:28:33;4.57;;;2.55;;
59089;SDS011;44878;50.102;18.982;2023-05-10T14:31:00;4.32;;;2.65;;
59089;SDS011;44878;50.102;18.982;2023-05-10T14:33:25;4.55;;;2.58;;
59089;SDS011;44878;50.102;18.982;2023-05-10T14:35:51;5.68;;;3.03;;
59089;SDS011;44878;50.102;18.982;2023-05-10T14:38:17;5.40;;;3.03;;
59089;SDS011;44878;50.102;18.982;2023-05-10T14:40:43;6.22;;;2.70;;
59089;SDS011;44878;50.102;18.982;2023-05-10T14:43:13;4.40;;;2.63;;
59089;SDS011;44878;50.102;18.982;2023-05-10T14:45:39;5.78;;;2.65;;
59089;SDS011;44878;50.102;18.982;2023-05-10T14:48:05;4.13;;;2.60;;
59089;SDS011;44878;50.102;18.982;2023-05-10T14:50:31;10.50;;;2.90;;
59089;SDS011;44878;50.102;18.982;2023-05-10T14:52:57;5.30;;;2.63;;
59089;SDS011;44878;50.102;18.982;2023-05-10T14:55:27;3.97;;;2.70;;
59089;SDS011;44878;50.102;18.982;2023-05-10T14:57:53;5.28;;;2.92;;
59089;SDS011;44878;50.102;18.982;2023-05-10T15:00:20;3.35;;;2.50;;
59089;SDS011;44878;50.102;18.982;2023-05-10T15:02:45;6.10;;;2.75;;
59089;SDS011;44878;50.102;18.982;2023-05-10T15:05:13;4.20;;;2.53;;